createdAt,value
2017-09-13T00:00:16.277Z,0.00
2017-09-13T00:01:16.270Z,0.00
2017-09-13T00:02:16.654Z,0.00
2017-09-13T00:03:16.252Z,0.00
2017-09-13T00:04:16.229Z,0.00
2017-09-13T00:05:16.221Z,0.00
2017-09-13T00:06:16.203Z,0.00
2017-09-13T00:07:16.197Z,0.00
2017-09-13T00:08:16.477Z,0.00
2017-09-13T00:09:16.173Z,0.00
2017-09-13T00:10:16.157Z,0.00
2017-09-13T00:11:16.155Z,0.00
2017-09-13T00:12:16.140Z,0.00
2017-09-13T00:13:16.123Z,0.00
2017-09-13T00:14:16.408Z,0.00
2017-09-13T00:15:16.102Z,0.00
2017-09-13T00:16:16.086Z,0.00
2017-09-13T00:17:16.074Z,0.00
2017-09-13T00:18:16.062Z,0.00
2017-09-13T00:19:16.054Z,0.00
2017-09-13T00:20:16.069Z,0.00
2017-09-13T00:21:16.471Z,0.00
2017-09-13T00:22:16.013Z,0.00
2017-09-13T00:23:16.020Z,0.00
2017-09-13T00:24:16.003Z,0.00
2017-09-13T00:25:15.993Z,0.00
2017-09-13T00:26:15.971Z,0.00
2017-09-13T00:27:15.992Z,0.00
2017-09-13T00:28:16.611Z,0.00
2017-09-13T00:29:15.944Z,0.00
2017-09-13T00:30:15.930Z,0.00
2017-09-13T00:31:15.919Z,0.00
2017-09-13T00:32:16.311Z,0.00
2017-09-13T00:33:15.887Z,0.00
2017-09-13T00:34:16.613Z,0.00
2017-09-13T00:35:15.864Z,0.00
2017-09-13T00:36:15.846Z,0.00
2017-09-13T00:37:15.847Z,0.00
2017-09-13T00:38:16.256Z,0.00
2017-09-13T00:39:15.811Z,0.00
2017-09-13T00:40:15.796Z,0.00
2017-09-13T00:41:15.791Z,0.00
2017-09-13T00:42:15.779Z,0.00
2017-09-13T00:43:15.777Z,0.00
2017-09-13T00:44:15.776Z,0.00
2017-09-13T00:45:15.750Z,0.00
2017-09-13T00:46:15.761Z,0.00
2017-09-13T00:47:15.728Z,0.00
2017-09-13T00:48:15.721Z,0.00
2017-09-13T00:49:15.740Z,0.00
2017-09-13T00:50:15.698Z,0.00
2017-09-13T00:51:15.678Z,0.00
2017-09-13T00:52:15.671Z,0.00
2017-09-13T00:53:15.654Z,0.00
2017-09-13T00:54:16.000Z,0.00
2017-09-13T00:55:15.629Z,0.00
2017-09-13T00:56:15.624Z,0.00
2017-09-13T00:57:15.617Z,0.00
2017-09-13T00:58:15.591Z,0.00
2017-09-13T00:59:15.577Z,0.00
2017-09-13T01:00:15.998Z,0.00
2017-09-13T01:01:15.553Z,0.00
2017-09-13T01:02:15.547Z,0.00
2017-09-13T01:03:15.546Z,0.00
2017-09-13T01:04:15.545Z,0.00
2017-09-13T01:05:15.511Z,0.00
2017-09-13T01:06:15.811Z,0.00
2017-09-13T01:07:15.484Z,0.00
2017-09-13T01:08:15.476Z,0.00
2017-09-13T01:09:15.473Z,0.00
2017-09-13T01:10:15.456Z,0.00
2017-09-13T01:11:15.441Z,0.00
2017-09-13T01:12:15.872Z,0.00
2017-09-13T01:13:15.419Z,0.00
2017-09-13T01:14:15.414Z,0.00
2017-09-13T01:15:15.411Z,0.00
2017-09-13T01:16:15.393Z,0.00
2017-09-13T01:17:15.381Z,0.00
2017-09-13T01:18:15.736Z,0.00
2017-09-13T01:19:15.365Z,0.00
2017-09-13T01:20:15.336Z,0.00
2017-09-13T01:21:15.327Z,0.00
2017-09-13T01:22:15.322Z,0.00
2017-09-13T01:23:15.298Z,0.00
2017-09-13T01:24:15.708Z,0.00
2017-09-13T01:25:15.298Z,0.00
2017-09-13T01:26:15.275Z,0.00
2017-09-13T01:27:15.257Z,0.00
2017-09-13T01:28:15.260Z,0.00
2017-09-13T01:29:15.243Z,0.00
2017-09-13T01:30:15.245Z,0.00
2017-09-13T01:31:15.215Z,0.00
2017-09-13T01:32:15.194Z,0.00
2017-09-13T01:33:15.247Z,0.00
2017-09-13T01:34:15.180Z,0.00
2017-09-13T01:35:15.159Z,0.00
2017-09-13T01:36:15.171Z,0.00
2017-09-13T01:37:15.151Z,0.00
2017-09-13T01:38:15.126Z,0.00
2017-09-13T01:39:15.262Z,0.00
2017-09-13T01:40:15.119Z,0.00
2017-09-13T01:41:15.104Z,0.00
2017-09-13T01:42:15.078Z,0.00
2017-09-13T01:43:15.094Z,0.00
2017-09-13T01:44:15.073Z,0.00
2017-09-13T01:45:15.084Z,0.00
2017-09-13T01:46:15.040Z,0.00
2017-09-13T01:47:15.033Z,0.00
2017-09-13T01:48:15.024Z,0.00
2017-09-13T01:49:15.034Z,0.00
2017-09-13T01:50:15.009Z,0.00
2017-09-13T01:51:14.973Z,0.00
2017-09-13T01:52:14.967Z,0.00
2017-09-13T01:53:14.960Z,0.00
2017-09-13T01:54:15.252Z,0.00
2017-09-13T01:55:14.932Z,0.00
2017-09-13T01:56:14.932Z,0.00
2017-09-13T01:57:14.927Z,0.00
2017-09-13T01:58:14.905Z,0.00
2017-09-13T01:59:14.892Z,0.00
2017-09-13T02:00:15.305Z,0.00
2017-09-13T02:01:14.874Z,0.00
2017-09-13T02:02:14.866Z,0.00
2017-09-13T02:03:14.848Z,0.00
2017-09-13T02:04:14.840Z,0.00
2017-09-13T02:05:14.831Z,0.00
2017-09-13T02:06:15.139Z,0.00
2017-09-13T02:07:14.797Z,0.00
2017-09-13T02:08:14.788Z,0.00
2017-09-13T02:09:14.776Z,0.00
2017-09-13T02:10:14.759Z,0.00
2017-09-13T02:11:14.747Z,0.00
2017-09-13T02:12:15.144Z,0.00
2017-09-13T02:13:14.739Z,0.00
2017-09-13T02:14:14.716Z,0.00
2017-09-13T02:15:14.712Z,0.00
2017-09-13T02:16:14.690Z,0.00
2017-09-13T02:17:14.696Z,0.00
2017-09-13T02:18:14.757Z,0.00
2017-09-13T02:19:14.653Z,0.00
2017-09-13T02:20:14.661Z,0.00
2017-09-13T02:21:14.636Z,0.00
2017-09-13T02:22:14.642Z,0.00
2017-09-13T02:23:14.629Z,0.00
2017-09-13T02:24:14.758Z,0.00
2017-09-13T02:25:14.606Z,0.00
2017-09-13T02:26:14.574Z,0.00
2017-09-13T02:27:14.589Z,0.00
2017-09-13T02:28:14.566Z,0.00
2017-09-13T02:29:14.558Z,0.00
2017-09-13T02:30:14.553Z,0.00
2017-09-13T02:31:14.821Z,0.00
2017-09-13T02:32:14.508Z,0.00
2017-09-13T02:33:14.508Z,0.00
2017-09-13T02:34:14.491Z,0.00
2017-09-13T02:35:14.472Z,0.00
2017-09-13T02:36:14.465Z,0.00
2017-09-13T02:37:14.488Z,0.00
2017-09-13T02:38:14.444Z,0.00
2017-09-13T02:39:14.428Z,0.00
2017-09-13T02:40:14.427Z,0.00
2017-09-13T02:41:14.770Z,0.00
2017-09-13T02:42:14.406Z,0.00
2017-09-13T02:43:14.393Z,0.00
2017-09-13T02:44:14.378Z,0.00
2017-09-13T02:45:14.371Z,0.00
2017-09-13T02:46:14.345Z,0.00
2017-09-13T02:47:14.784Z,0.00
2017-09-13T02:48:14.339Z,0.00
2017-09-13T02:49:14.326Z,0.00
2017-09-13T02:50:14.302Z,0.00
2017-09-13T02:51:14.312Z,0.00
2017-09-13T02:52:14.276Z,0.00
2017-09-13T02:53:14.866Z,0.00
2017-09-13T02:54:14.275Z,0.00
2017-09-13T02:55:14.261Z,0.00
2017-09-13T02:56:14.228Z,0.00
2017-09-13T02:57:14.244Z,0.00
2017-09-13T02:58:14.208Z,0.00
2017-09-13T02:59:14.686Z,0.00
2017-09-13T03:00:14.203Z,0.00
2017-09-13T03:01:14.188Z,0.00
2017-09-13T03:02:14.157Z,0.00
2017-09-13T03:03:14.152Z,0.00
2017-09-13T03:04:14.148Z,0.00
2017-09-13T03:05:14.327Z,0.00
2017-09-13T03:06:14.225Z,0.00
2017-09-13T03:07:14.121Z,0.00
2017-09-13T03:08:14.112Z,0.00
2017-09-13T03:09:14.098Z,0.00
2017-09-13T03:10:14.068Z,0.00
2017-09-13T03:11:14.389Z,0.00
2017-09-13T03:12:14.047Z,0.00
2017-09-13T03:13:14.043Z,0.00
2017-09-13T03:14:14.022Z,0.00
2017-09-13T03:15:14.030Z,0.00
2017-09-13T03:16:14.013Z,0.00
2017-09-13T03:17:14.357Z,0.00
2017-09-13T03:18:13.978Z,0.00
2017-09-13T03:19:13.981Z,0.00
2017-09-13T03:20:13.970Z,0.00
2017-09-13T03:21:13.959Z,0.00
2017-09-13T03:22:13.945Z,0.00
2017-09-13T03:23:14.299Z,0.00
2017-09-13T03:24:13.922Z,0.00
2017-09-13T03:25:13.900Z,0.00
2017-09-13T03:26:13.911Z,0.00
2017-09-13T03:27:13.869Z,0.00
2017-09-13T03:28:13.864Z,0.00
2017-09-13T03:29:14.266Z,0.00
2017-09-13T03:30:13.837Z,0.00
2017-09-13T03:31:13.827Z,0.00
2017-09-13T03:32:13.824Z,0.00
2017-09-13T03:33:13.813Z,0.00
2017-09-13T03:34:13.805Z,0.00
2017-09-13T03:35:14.121Z,0.00
2017-09-13T03:36:13.782Z,0.00
2017-09-13T03:37:13.765Z,0.00
2017-09-13T03:38:13.757Z,0.00
2017-09-13T03:39:13.744Z,0.00
2017-09-13T03:40:13.731Z,0.00
2017-09-13T03:41:13.747Z,0.00
2017-09-13T03:42:13.710Z,0.00
2017-09-13T03:43:13.730Z,0.00
2017-09-13T03:44:13.675Z,0.00
2017-09-13T03:45:13.664Z,0.00
2017-09-13T03:46:13.653Z,0.00
2017-09-13T03:47:13.653Z,0.00
2017-09-13T03:48:14.075Z,0.00
2017-09-13T03:49:13.620Z,0.00
2017-09-13T03:50:13.627Z,0.00
2017-09-13T03:51:13.619Z,0.00
2017-09-13T03:52:13.606Z,0.00
2017-09-13T03:53:13.582Z,0.00
2017-09-13T03:54:13.926Z,0.00
2017-09-13T03:55:13.550Z,0.00
2017-09-13T03:56:13.558Z,0.00
2017-09-13T03:57:13.539Z,0.00
2017-09-13T03:58:13.519Z,0.00
2017-09-13T03:59:13.511Z,0.00
2017-09-13T04:00:13.524Z,0.00
2017-09-13T04:01:13.501Z,0.00
2017-09-13T04:02:13.487Z,0.00
2017-09-13T04:03:13.466Z,0.00
2017-09-13T04:04:13.748Z,0.00
2017-09-13T04:05:13.445Z,0.00
2017-09-13T04:06:13.435Z,0.00
2017-09-13T04:07:13.430Z,0.00
2017-09-13T04:08:13.401Z,0.00
2017-09-13T04:09:13.404Z,0.00
2017-09-13T04:10:13.810Z,0.00
2017-09-13T04:11:13.383Z,0.00
2017-09-13T04:12:13.349Z,0.00
2017-09-13T04:13:13.356Z,0.00
2017-09-13T04:14:13.332Z,0.00
2017-09-13T04:15:13.318Z,0.00
2017-09-13T04:16:13.744Z,0.00
2017-09-13T04:17:13.321Z,0.00
2017-09-13T04:18:13.287Z,0.00
2017-09-13T04:19:13.287Z,0.00
2017-09-13T04:20:13.272Z,0.00
2017-09-13T04:21:13.260Z,0.00
2017-09-13T04:22:13.579Z,0.00
2017-09-13T04:23:13.232Z,0.00
2017-09-13T04:24:13.228Z,0.00
2017-09-13T04:25:13.195Z,0.00
2017-09-13T04:26:13.192Z,0.00
2017-09-13T04:27:13.186Z,0.00
2017-09-13T04:28:13.567Z,0.00
2017-09-13T04:29:13.157Z,0.00
2017-09-13T04:30:13.150Z,0.00
2017-09-13T04:31:13.142Z,0.00
2017-09-13T04:32:13.148Z,0.00
2017-09-13T04:33:13.118Z,0.00
2017-09-13T04:34:13.140Z,0.00
2017-09-13T04:35:13.084Z,0.00
2017-09-13T04:36:13.089Z,0.00
2017-09-13T04:37:13.074Z,0.00
2017-09-13T04:38:13.066Z,0.00
2017-09-13T04:39:13.317Z,0.00
2017-09-13T04:40:13.039Z,0.00
2017-09-13T04:41:13.023Z,0.00
2017-09-13T04:42:13.025Z,0.00
2017-09-13T04:43:13.001Z,0.00
2017-09-13T04:44:13.273Z,0.00
2017-09-13T04:45:12.986Z,0.00
2017-09-13T04:46:12.953Z,0.00
2017-09-13T04:47:12.955Z,0.00
2017-09-13T04:48:13.012Z,0.00
2017-09-13T04:49:12.938Z,0.00
2017-09-13T04:50:13.317Z,0.00
2017-09-13T04:51:12.912Z,0.00
2017-09-13T04:52:12.904Z,0.00
2017-09-13T04:53:12.878Z,0.00
2017-09-13T04:54:12.874Z,0.00
2017-09-13T04:55:12.853Z,0.00
2017-09-13T04:56:13.248Z,0.00
2017-09-13T04:57:12.842Z,0.00
2017-09-13T04:58:12.814Z,0.00
2017-09-13T04:59:12.820Z,0.00
2017-09-13T05:00:12.810Z,0.00
2017-09-13T05:01:12.788Z,0.00
2017-09-13T05:02:13.107Z,0.00
2017-09-13T05:03:12.764Z,0.00
2017-09-13T05:04:12.749Z,0.00
2017-09-13T05:05:12.734Z,0.00
2017-09-13T05:06:12.724Z,0.00
2017-09-13T05:07:12.715Z,0.00
2017-09-13T05:08:12.740Z,0.00
2017-09-13T05:09:12.689Z,0.00
2017-09-13T05:10:13.054Z,0.00
2017-09-13T05:11:12.673Z,0.00
2017-09-13T05:12:12.652Z,0.00
2017-09-13T05:13:12.652Z,0.00
2017-09-13T05:14:12.641Z,0.00
2017-09-13T05:15:12.626Z,0.00
2017-09-13T05:16:12.654Z,0.00
2017-09-13T05:17:12.586Z,0.00
2017-09-13T05:18:12.576Z,0.00
2017-09-13T05:19:12.575Z,0.00
2017-09-13T05:20:12.558Z,0.00
2017-09-13T05:21:12.820Z,0.00
2017-09-13T05:22:12.556Z,0.00
2017-09-13T05:23:12.535Z,0.00
2017-09-13T05:24:12.512Z,0.00
2017-09-13T05:25:12.573Z,0.00
2017-09-13T05:26:12.724Z,0.00
2017-09-13T05:27:12.482Z,0.00
2017-09-13T05:28:12.475Z,0.00
2017-09-13T05:29:12.459Z,0.00
2017-09-13T05:30:12.440Z,0.00
2017-09-13T05:31:12.430Z,0.00
2017-09-13T05:32:12.738Z,0.00
2017-09-13T05:33:12.396Z,0.00
2017-09-13T05:34:12.417Z,0.00
2017-09-13T05:35:12.386Z,0.00
2017-09-13T05:36:12.367Z,0.00
2017-09-13T05:37:12.362Z,0.00
2017-09-13T05:38:12.750Z,0.00
2017-09-13T05:39:12.358Z,0.00
2017-09-13T05:40:12.339Z,0.00
2017-09-13T05:41:12.319Z,0.00
2017-09-13T05:42:12.300Z,0.00
2017-09-13T05:43:12.290Z,0.00
2017-09-13T05:44:12.585Z,0.00
2017-09-13T05:45:12.265Z,0.00
2017-09-13T05:46:12.274Z,0.00
2017-09-13T05:47:12.252Z,0.00
2017-09-13T05:48:12.244Z,0.00
2017-09-13T05:49:12.226Z,0.00
2017-09-13T05:50:12.627Z,0.00
2017-09-13T05:51:12.197Z,0.00
2017-09-13T05:52:12.175Z,0.00
2017-09-13T05:53:12.171Z,0.00
2017-09-13T05:54:12.166Z,0.00
2017-09-13T05:55:12.140Z,0.00
2017-09-13T05:56:12.539Z,0.00
2017-09-13T05:57:12.112Z,0.00
2017-09-13T05:58:12.100Z,0.00
2017-09-13T05:59:12.125Z,0.00
2017-09-13T06:00:12.082Z,0.00
2017-09-13T06:01:12.081Z,0.00
2017-09-13T06:02:12.382Z,0.00
2017-09-13T06:03:12.061Z,0.00
2017-09-13T06:04:12.026Z,0.00
2017-09-13T06:05:12.018Z,0.00
2017-09-13T06:06:12.006Z,5.63
2017-09-13T06:07:11.989Z,5.63
2017-09-13T06:08:12.328Z,0.00
2017-09-13T06:09:11.968Z,0.00
2017-09-13T06:10:11.969Z,5.63
2017-09-13T06:11:11.966Z,5.63
2017-09-13T06:12:11.942Z,5.63
2017-09-13T06:13:11.946Z,0.00
2017-09-13T06:14:12.326Z,5.63
2017-09-13T06:15:11.905Z,5.63
2017-09-13T06:16:11.896Z,0.00
2017-09-13T06:17:11.877Z,0.00
2017-09-13T06:18:11.861Z,0.00
2017-09-13T06:19:11.844Z,5.63
2017-09-13T06:20:12.170Z,5.63
2017-09-13T06:21:11.817Z,5.63
2017-09-13T06:22:11.829Z,5.63
2017-09-13T06:23:11.794Z,5.63
2017-09-13T06:24:11.791Z,0.00
2017-09-13T06:25:11.790Z,0.00
2017-09-13T06:26:11.969Z,5.63
2017-09-13T06:27:11.763Z,5.63
2017-09-13T06:28:11.735Z,5.63
2017-09-13T06:29:11.721Z,5.63
2017-09-13T06:30:11.716Z,5.63
2017-09-13T06:31:11.710Z,5.63
2017-09-13T06:32:11.726Z,5.63
2017-09-13T06:33:11.835Z,5.63
2017-09-13T06:34:11.659Z,5.63
2017-09-13T06:35:11.660Z,5.63
2017-09-13T06:36:11.641Z,5.63
2017-09-13T06:37:11.646Z,5.63
2017-09-13T06:38:11.622Z,11.25
2017-09-13T06:39:12.022Z,5.63
2017-09-13T06:40:11.597Z,5.63
2017-09-13T06:41:11.598Z,5.63
2017-09-13T06:42:11.572Z,0.00
2017-09-13T06:43:11.573Z,0.00
2017-09-13T06:44:11.545Z,5.63
2017-09-13T06:45:11.568Z,11.25
2017-09-13T06:46:11.511Z,11.25
2017-09-13T06:47:11.511Z,16.88
2017-09-13T06:48:11.796Z,28.13
2017-09-13T06:49:11.479Z,16.88
2017-09-13T06:50:11.464Z,28.13
2017-09-13T06:51:11.471Z,22.50
2017-09-13T06:52:11.438Z,16.88
2017-09-13T06:53:11.438Z,16.88
2017-09-13T06:54:11.728Z,22.50
2017-09-13T06:55:11.406Z,33.75
2017-09-13T06:56:11.414Z,22.50
2017-09-13T06:57:11.392Z,22.50
2017-09-13T06:58:11.383Z,28.13
2017-09-13T06:59:11.352Z,33.75
2017-09-13T07:00:11.658Z,33.75
2017-09-13T07:01:11.347Z,28.13
2017-09-13T07:02:11.331Z,28.13
2017-09-13T07:03:11.314Z,22.50
2017-09-13T07:04:11.302Z,16.88
2017-09-13T07:05:11.292Z,11.25
2017-09-13T07:06:11.500Z,5.63
2017-09-13T07:07:11.257Z,5.63
2017-09-13T07:08:11.244Z,5.63
2017-09-13T07:09:11.246Z,5.63
2017-09-13T07:10:11.222Z,11.25
2017-09-13T07:11:11.206Z,11.25
2017-09-13T07:12:11.574Z,16.88
2017-09-13T07:13:13.818Z,11.25
2017-09-13T07:14:11.177Z,5.63
2017-09-13T07:15:11.165Z,5.63
2017-09-13T07:16:11.161Z,11.25
2017-09-13T07:17:11.144Z,11.25
2017-09-13T07:18:11.355Z,5.63
2017-09-13T07:19:11.120Z,5.63
2017-09-13T07:20:11.113Z,0.00
2017-09-13T07:21:11.098Z,0.00
2017-09-13T07:22:11.092Z,5.63
2017-09-13T07:23:11.059Z,16.88
2017-09-13T07:24:11.376Z,22.50
2017-09-13T07:25:11.049Z,28.13
2017-09-13T07:26:11.028Z,22.50
2017-09-13T07:27:11.025Z,39.38
2017-09-13T07:28:11.032Z,33.75
2017-09-13T07:29:11.006Z,28.13
2017-09-13T07:30:11.015Z,39.38
2017-09-13T07:31:11.009Z,39.38
2017-09-13T07:32:11.255Z,39.38
2017-09-13T07:33:10.987Z,39.38
2017-09-13T07:34:11.352Z,33.75
2017-09-13T07:35:10.935Z,45.00
2017-09-13T07:36:10.915Z,39.38
2017-09-13T07:37:10.898Z,39.38
2017-09-13T07:38:12.896Z,50.63
2017-09-13T07:39:10.889Z,50.63
2017-09-13T07:40:11.309Z,39.38
2017-09-13T07:41:12.863Z,39.38
2017-09-13T07:42:15.834Z,45.00
2017-09-13T07:43:12.829Z,39.38
2017-09-13T07:48:36.746Z,56.25
2017-09-13T07:49:35.967Z,56.25
2017-09-13T07:50:37.148Z,56.25
2017-09-13T07:51:36.702Z,61.88
2017-09-13T07:52:36.021Z,67.50
2017-09-13T07:53:36.627Z,56.25
2017-09-13T07:54:36.454Z,61.88
2017-09-13T07:55:35.957Z,56.25
2017-09-13T07:56:37.861Z,56.25
2017-09-13T07:57:36.151Z,50.63
2017-09-13T07:58:35.844Z,56.25
2017-09-13T07:59:36.072Z,61.88
2017-09-13T08:00:36.090Z,56.25
2017-09-13T08:01:36.117Z,33.75
2017-09-13T08:02:35.790Z,33.75
2017-09-13T08:03:35.773Z,33.75
2017-09-13T08:04:35.813Z,39.38
2017-09-13T08:05:35.777Z,45.00
2017-09-13T08:06:35.921Z,39.38
2017-09-13T08:07:35.731Z,39.38
2017-09-13T08:08:35.747Z,39.38
2017-09-13T08:09:36.135Z,28.13
2017-09-13T08:10:35.686Z,28.13
2017-09-13T08:11:35.689Z,39.38
2017-09-13T08:12:35.661Z,45.00
2017-09-13T08:13:35.652Z,33.75
2017-09-13T08:14:35.650Z,39.38
2017-09-13T08:15:35.950Z,39.38
2017-09-13T08:16:35.615Z,28.13
2017-09-13T08:17:35.605Z,22.50
2017-09-13T08:18:35.977Z,16.88
2017-09-13T08:19:35.629Z,16.88
2017-09-13T08:20:36.311Z,22.50
2017-09-13T08:21:36.104Z,22.50
2017-09-13T08:22:35.582Z,22.50
2017-09-13T08:23:35.588Z,33.75
2017-09-13T08:24:35.640Z,16.88
2017-09-13T08:25:35.526Z,16.88
2017-09-13T08:26:35.520Z,22.50
2017-09-13T08:27:35.884Z,28.13
2017-09-13T08:28:35.491Z,28.13
2017-09-13T08:29:35.487Z,28.13
2017-09-13T08:30:35.463Z,22.50
2017-09-13T08:31:35.456Z,16.88
2017-09-13T08:32:35.467Z,16.88
2017-09-13T08:33:35.469Z,16.88
2017-09-13T08:34:35.572Z,16.88
2017-09-13T08:35:35.418Z,11.25
2017-09-13T08:36:35.666Z,5.63
2017-09-13T08:37:35.388Z,11.25
2017-09-13T08:38:35.953Z,11.25
2017-09-13T08:39:35.404Z,11.25
2017-09-13T08:40:35.481Z,11.25
2017-09-13T08:41:35.416Z,11.25
2017-09-13T08:42:35.680Z,11.25
2017-09-13T08:43:35.441Z,16.88
2017-09-13T08:44:35.417Z,16.88
2017-09-13T08:45:35.315Z,11.25
2017-09-13T08:46:35.424Z,11.25
2017-09-13T08:47:35.332Z,11.25
2017-09-13T08:48:35.413Z,11.25
2017-09-13T08:49:35.391Z,11.25
2017-09-13T08:50:35.240Z,16.88
2017-09-13T08:51:35.242Z,16.88
2017-09-13T08:52:35.228Z,45.00
2017-09-13T08:53:35.887Z,50.63
2017-09-13T08:54:35.195Z,39.38
2017-09-13T08:55:35.231Z,33.75
2017-09-13T08:56:35.192Z,45.00
2017-09-13T08:57:35.148Z,50.63
2017-09-13T08:58:35.364Z,39.38
2017-09-13T08:59:35.148Z,45.00
2017-09-13T09:00:35.913Z,45.00
2017-09-13T09:01:35.109Z,50.63
2017-09-13T09:02:35.103Z,50.63
2017-09-13T09:03:35.081Z,73.13
2017-09-13T09:04:36.518Z,84.38
2017-09-13T09:05:35.580Z,50.63
2017-09-13T09:06:35.759Z,56.25
2017-09-13T09:07:35.057Z,73.13
2017-09-13T09:08:35.041Z,67.50
2017-09-13T09:09:35.016Z,84.38
2017-09-13T09:10:35.393Z,67.50
2017-09-13T09:11:34.992Z,67.50
2017-09-13T09:12:34.990Z,56.25
2017-09-13T09:13:34.970Z,61.88
2017-09-13T09:14:34.976Z,39.38
2017-09-13T09:15:34.951Z,50.63
2017-09-13T09:16:35.305Z,50.63
2017-09-13T09:17:34.942Z,56.25
2017-09-13T09:18:34.931Z,61.88
2017-09-13T09:19:34.915Z,56.25
2017-09-13T09:20:34.899Z,56.25
2017-09-13T09:21:34.891Z,56.25
2017-09-13T09:22:35.100Z,56.25
2017-09-13T09:23:34.861Z,39.38
2017-09-13T09:24:34.877Z,45.00
2017-09-13T09:25:34.853Z,39.38
2017-09-13T09:26:34.853Z,33.75
2017-09-13T09:27:34.928Z,39.38
2017-09-13T09:28:35.676Z,45.00
2017-09-13T09:29:34.813Z,45.00
2017-09-13T09:30:35.659Z,45.00
2017-09-13T09:31:34.800Z,45.00
2017-09-13T09:32:34.788Z,33.75
2017-09-13T09:33:35.708Z,50.63
2017-09-13T09:34:36.748Z,118.13
2017-09-13T09:35:34.779Z,106.88
2017-09-13T09:36:35.652Z,67.50
2017-09-13T09:37:34.761Z,61.88
2017-09-13T09:38:34.728Z,56.25
2017-09-13T09:39:34.738Z,61.88
2017-09-13T09:40:34.689Z,84.38
2017-09-13T09:41:34.686Z,67.50
2017-09-13T09:42:34.703Z,61.88
2017-09-13T09:43:34.654Z,61.88
2017-09-13T09:44:37.626Z,61.88
2017-09-13T09:45:34.649Z,73.13
2017-09-13T09:46:34.623Z,73.13
2017-09-13T09:47:34.622Z,67.50
2017-09-13T09:48:34.618Z,67.50
2017-09-13T09:49:34.596Z,95.63
2017-09-13T09:50:34.609Z,73.13
2017-09-13T09:51:34.591Z,61.88
2017-09-13T09:52:35.179Z,67.50
2017-09-13T09:53:34.579Z,112.50
2017-09-13T09:54:34.562Z,90.00
2017-09-13T09:55:34.543Z,95.63
2017-09-13T09:56:36.515Z,101.25
2017-09-13T09:57:34.502Z,67.50
2017-09-13T09:58:34.495Z,50.63
2017-09-13T09:59:45.138Z,61.88
2017-09-13T10:00:36.080Z,67.50
2017-09-13T10:01:35.387Z,95.63
2017-09-13T10:02:35.344Z,73.13
2017-09-13T10:03:34.698Z,67.50
2017-09-13T10:04:35.051Z,61.88
2017-09-13T10:05:34.717Z,56.25
2017-09-13T10:06:34.785Z,45.00
2017-09-13T10:07:35.289Z,45.00
2017-09-13T10:08:35.146Z,50.63
2017-09-13T10:09:35.317Z,56.25
2017-09-13T10:10:34.353Z,73.13
2017-09-13T10:11:34.640Z,50.63
2017-09-13T10:12:34.326Z,708.75
2017-09-13T10:13:34.315Z,61.88
2017-09-13T10:14:34.365Z,95.63
2017-09-13T10:15:34.301Z,73.13
2017-09-13T10:16:34.323Z,50.63
2017-09-13T10:17:34.709Z,50.63
2017-09-13T10:18:34.287Z,61.88
2017-09-13T10:19:34.282Z,61.88
2017-09-13T10:20:34.265Z,61.88
2017-09-13T10:21:35.275Z,56.25
2017-09-13T10:22:34.237Z,73.13
2017-09-13T10:23:34.606Z,67.50
2017-09-13T10:24:34.238Z,56.25
2017-09-13T10:25:34.195Z,78.75
2017-09-13T10:26:34.336Z,61.88
2017-09-13T10:27:34.174Z,90.00
2017-09-13T10:28:34.303Z,45.00
2017-09-13T10:29:34.844Z,84.38
2017-09-13T10:30:34.143Z,90.00
2017-09-13T10:31:34.126Z,95.63
2017-09-13T10:32:34.126Z,106.88
2017-09-13T10:33:34.101Z,95.63
2017-09-13T10:34:34.398Z,84.38
2017-09-13T10:35:34.105Z,50.63
2017-09-13T10:36:34.076Z,67.50
2017-09-13T10:37:36.828Z,61.88
2017-09-13T10:38:34.068Z,67.50
2017-09-13T10:39:34.065Z,90.00
2017-09-13T10:40:34.489Z,73.13
2017-09-13T10:41:34.074Z,101.25
2017-09-13T10:42:34.091Z,95.63
2017-09-13T10:43:34.024Z,135.00
2017-09-13T10:44:34.025Z,168.75
2017-09-13T10:45:33.995Z,129.38
2017-09-13T10:46:34.358Z,174.38
2017-09-13T10:47:33.965Z,123.75
2017-09-13T10:48:33.963Z,112.50
2017-09-13T10:49:33.938Z,129.38
2017-09-13T10:50:33.941Z,146.25
2017-09-13T10:51:33.974Z,101.25
2017-09-13T10:52:34.363Z,90.00
2017-09-13T10:53:33.907Z,73.13
2017-09-13T10:54:33.898Z,61.88
2017-09-13T10:55:33.904Z,61.88
2017-09-13T10:56:33.887Z,61.88
2017-09-13T10:57:33.899Z,50.63
2017-09-13T10:58:33.856Z,56.25
2017-09-13T10:59:33.850Z,45.00
2017-09-13T11:00:33.843Z,56.25
2017-09-13T11:01:33.834Z,50.63
2017-09-13T11:02:34.243Z,95.63
2017-09-13T11:03:33.817Z,73.13
2017-09-13T11:04:33.818Z,90.00
2017-09-13T11:05:33.782Z,106.88
2017-09-13T11:06:33.773Z,106.88
2017-09-13T11:07:33.780Z,191.25
2017-09-13T11:08:33.782Z,151.88
2017-09-13T11:09:33.736Z,163.13
2017-09-13T11:10:33.733Z,135.00
2017-09-13T11:11:33.727Z,151.88
2017-09-13T11:12:33.751Z,151.88
2017-09-13T11:13:33.706Z,129.38
2017-09-13T11:14:33.690Z,118.13
2017-09-13T11:15:33.693Z,129.38
2017-09-13T11:16:33.669Z,151.88
2017-09-13T11:17:33.691Z,78.75
2017-09-13T11:18:33.650Z,73.13
2017-09-13T11:19:33.645Z,84.38
2017-09-13T11:20:33.625Z,146.25
2017-09-13T11:21:33.628Z,106.88
2017-09-13T11:22:33.646Z,129.38
2017-09-13T11:23:33.610Z,33.75
2017-09-13T11:24:33.581Z,33.75
2017-09-13T11:25:33.585Z,50.63
2017-09-13T11:26:33.568Z,39.38
2017-09-13T11:27:34.087Z,33.75
2017-09-13T11:28:33.554Z,50.63
2017-09-13T11:29:33.534Z,67.50
2017-09-13T11:30:33.542Z,73.13
2017-09-13T11:31:33.533Z,90.00
2017-09-13T11:32:33.504Z,73.13
2017-09-13T11:33:33.852Z,84.38
2017-09-13T11:34:33.491Z,84.38
2017-09-13T11:35:33.476Z,78.75
2017-09-13T11:36:33.468Z,95.63
2017-09-13T11:37:33.454Z,84.38
2017-09-13T11:38:33.435Z,90.00
2017-09-13T11:39:34.283Z,78.75
2017-09-13T11:40:33.423Z,78.75
2017-09-13T11:41:33.424Z,84.38
2017-09-13T11:42:33.407Z,101.25
2017-09-13T11:43:33.379Z,84.38
2017-09-13T11:44:33.373Z,106.88
2017-09-13T11:45:33.800Z,101.25
2017-09-13T11:46:33.884Z,112.50
2017-09-13T11:47:33.354Z,95.63
2017-09-13T11:48:33.341Z,101.25
2017-09-13T11:49:33.314Z,129.38
2017-09-13T11:50:33.313Z,151.88
2017-09-13T11:51:33.335Z,78.75
2017-09-13T11:52:33.287Z,73.13
2017-09-13T11:53:33.287Z,101.25
2017-09-13T11:54:33.273Z,151.88
2017-09-13T11:55:33.252Z,146.25
2017-09-13T11:56:33.567Z,118.13
2017-09-13T11:57:33.239Z,157.50
2017-09-13T11:58:33.684Z,129.38
2017-09-13T11:59:33.220Z,118.13
2017-09-13T12:00:33.196Z,315.00
2017-09-13T12:01:33.193Z,151.88
2017-09-13T12:02:33.400Z,123.75
2017-09-13T12:03:33.178Z,118.13
2017-09-13T12:04:33.178Z,129.38
2017-09-13T12:05:33.144Z,1496.25
2017-09-13T12:06:33.642Z,1383.75
2017-09-13T12:07:33.139Z,348.75
2017-09-13T12:08:33.425Z,101.25
2017-09-13T12:09:33.128Z,90.00
2017-09-13T12:10:33.104Z,90.00
2017-09-13T12:11:33.090Z,315.00
2017-09-13T12:12:33.094Z,95.63
2017-09-13T12:13:33.068Z,135.00
2017-09-13T12:14:33.376Z,123.75
2017-09-13T12:15:33.056Z,90.00
2017-09-13T12:16:33.038Z,90.00
2017-09-13T12:17:33.029Z,90.00
2017-09-13T12:18:33.018Z,90.00
2017-09-13T12:19:33.757Z,95.63
2017-09-13T12:20:33.444Z,84.38
2017-09-13T12:21:33.002Z,106.88
2017-09-13T12:22:33.109Z,101.25
2017-09-13T12:23:32.969Z,112.50
2017-09-13T12:24:32.972Z,101.25
2017-09-13T12:25:32.953Z,112.50
2017-09-13T12:26:33.377Z,123.75
2017-09-13T12:27:32.934Z,118.13
2017-09-13T12:28:32.943Z,101.25
2017-09-13T12:29:32.939Z,90.00
2017-09-13T12:30:32.910Z,106.88
2017-09-13T12:31:32.900Z,101.25
2017-09-13T12:32:33.201Z,118.13
2017-09-13T12:33:32.892Z,106.88
2017-09-13T12:34:32.883Z,90.00
2017-09-13T12:35:32.862Z,101.25
2017-09-13T12:36:32.880Z,202.50
2017-09-13T12:37:32.854Z,106.88
2017-09-13T12:38:32.860Z,123.75
2017-09-13T12:39:32.821Z,196.88
2017-09-13T12:40:32.812Z,168.75
2017-09-13T12:41:32.799Z,129.38
2017-09-13T12:42:33.154Z,191.25
2017-09-13T12:43:32.802Z,106.88
2017-09-13T12:44:32.772Z,61.88
2017-09-13T12:45:32.774Z,61.88
2017-09-13T12:46:32.753Z,84.38
2017-09-13T12:47:32.770Z,118.13
2017-09-13T12:48:33.046Z,163.13
2017-09-13T12:49:32.740Z,180.00
2017-09-13T12:50:32.718Z,135.00
2017-09-13T12:51:32.723Z,112.50
2017-09-13T12:52:32.700Z,90.00
2017-09-13T12:53:32.693Z,45.00
2017-09-13T12:54:32.715Z,50.63
2017-09-13T12:55:32.685Z,61.88
2017-09-13T12:56:32.677Z,90.00
2017-09-13T12:57:32.682Z,78.75
2017-09-13T12:58:32.649Z,39.38
2017-09-13T12:59:33.022Z,28.13
2017-09-13T13:00:32.643Z,33.75
2017-09-13T13:01:32.628Z,78.75
2017-09-13T13:02:32.621Z,67.50
2017-09-13T13:03:32.604Z,67.50
2017-09-13T13:04:32.599Z,78.75
2017-09-13T13:05:32.814Z,45.00
2017-09-13T13:06:32.583Z,56.25
2017-09-13T13:07:32.579Z,118.13